Elk Park RAWS

Elevation
6292ft
Jump to table bottom
Date/Time Wind Direction Wind Speed knots Wind Gust knots RH % Accumulated Precip Inches Air Temp Fahrenheit
2022-11-30 12:37 SSW 12 17 66 0 22
2022-11-30 12:22 SSW 15 21 66 0 21
2022-11-30 12:07 S 15 21 67 0 21
2022-11-30 11:37 S 5 6 66 0 21
2022-11-30 11:22 S 3 5 67 0 20
2022-11-30 11:07 SSE 5 8 68 0 19
2022-11-30 10:37 SSE 9 12 71 0 17
2022-11-30 10:22 SW 2 5 71 0 16
2022-11-30 10:07 W 3 5 71 0 15
2022-11-30 09:37 SSW 4 8 71 0 14
2022-11-30 09:22 SSW 3 3 71 0 12
2022-11-30 09:07 S 5 5 71 0 12
2022-11-30 08:37 SSW 7 8 69 0 13
2022-11-30 08:22 SW 7 8 68 0 12
2022-11-30 08:07 SSW 7 7 67 0 12
2022-11-30 07:37 SSW 7 10 66 0 13
2022-11-30 07:22 SSW 8 10 67 0 12
2022-11-30 07:07 SSW 7 9 68 0 11
2022-11-30 06:37 SSW 7 9 71 0 10
2022-11-30 06:22 SSW 8 9 68 0 11
2022-11-30 06:07 S 5 7 64 0 11
2022-11-30 05:37 S 6 7 67 0 10
2022-11-30 05:22 S 6 9 69 0 10
2022-11-30 05:07 S 8 9 67 0 10
2022-11-30 04:37 S 7 9 68 0 9
2022-11-30 04:22 S 9 10 69 0 8
2022-11-30 04:07 SSW 10 12 73 0 8
2022-11-30 03:37 0 4 80 0 -1
2022-11-30 03:22 ENE 1 3 77 0 -7
2022-11-30 03:07 S 7 8 77 0 -9
2022-11-30 02:37 0 2 75 0 -12
2022-11-30 02:07 0 1 75 0 -12
2022-11-30 01:52 0 1 75 0 -12
2022-11-30 01:37 0 1 75 0 -13
2022-11-30 01:22 0 0 76 0 -11
2022-11-30 01:07 0 0 75 0 -11
2022-11-30 00:37 SW 1 2 76 0 -11
2022-11-30 00:22 0 0 76 0 -9
2022-11-30 00:07 0 1 76 0 -9
2022-11-29 23:37 N 1 2 76 0 -8
2022-11-29 23:22 ESE 1 2 76 0 -8
2022-11-29 23:07 0 3 76 0 -9
2022-11-29 22:37 S 3 4 76 0 -9
2022-11-29 22:22 SSW 4 5 76 0 -9
2022-11-29 22:07 SSW 3 4 76 0 -9
2022-11-29 21:37 NW 1 2 77 0 -7
2022-11-29 21:22 NNE 1 3 77 0 -10
2022-11-29 21:07 NNE 2 2 76 0 -11
2022-11-29 20:37 0 2 77 0 -9
2022-11-29 20:22 SE 1 2 79 0 -5
2022-11-29 20:07 0 0 78 0 -7
2022-11-29 19:37 NE 2 3 78 0 -3
2022-11-29 19:22 NE 2 2 77 0 -2
2022-11-29 19:07 0 3 76 0 -2
2022-11-29 18:37 0 3 75 0 0
2022-11-29 18:22 S 1 4 73 0 -1
2022-11-29 18:07 SSW 3 5 70 0 0
2022-11-29 17:37 S 3 5 67 0 2
2022-11-29 17:22 SSE 3 4 65 0 5
2022-11-29 17:07 S 3 6 64 0 6
2022-11-29 16:37 SW 7 11 57 0 9
2022-11-29 16:22 SSW 8 12 57 0 8
2022-11-29 16:07 SW 6 11 58 0 9
2022-11-29 15:37 SSW 7 10 58 0 9
2022-11-29 15:22 SSW 8 10 60 0 9
2022-11-29 15:07 S 7 13 56 0 10
2022-11-29 14:37 SW 7 13 57 0 11
2022-11-29 14:22 SW 7 10 70 0 6
2022-11-29 14:07 SSW 7 10 73 0 5
2022-11-29 13:37 S 5 9 75 0 3
2022-11-29 13:22 SSW 7 8 73 0 3
2022-11-29 13:07 S 3 4 73 0 3
2022-11-29 12:37 SSW 1 2 75 0 1
2022-11-29 12:22 0 1 77 0 2
2022-11-29 12:07 SW 1 2 77 0 0
2022-11-29 11:37 W 2 3 77 0 -2
2022-11-29 11:22 WSW 2 2 77 0 -2
2022-11-29 11:07 0 1 78 0 -1
2022-11-29 10:37 W 2 3 78 0 -2
2022-11-29 10:22 0 0 78 0 -3
2022-11-29 10:07 0 2 78 0 -3
2022-11-29 09:37 0 2 77 0 -6
2022-11-29 09:22 SE 1 2 76 0 -8
2022-11-29 09:07 WNW 4 4 76 0 -8
2022-11-29 08:37 0 1 76 0 -9
2022-11-29 08:22 0 0 76 0 -10
2022-11-29 08:07 NNE 1 2 76 0 -10
2022-11-29 07:37 0 0 76 0 -11
2022-11-29 07:22 0 0 76 0 -10
2022-11-29 07:07 S 2 3 76 0 -8
2022-11-29 06:37 SW 4 4 76 0 -9
2022-11-29 06:22 SW 5 5 76 0 -8
2022-11-29 06:07 S 5 7 76 0 -9
2022-11-29 05:37 0 0 76 0 -9
2022-11-29 05:22 N 1 2 76 0 -9
2022-11-29 05:07 NNW 2 2 77 0 -9
2022-11-29 04:37 N 1 3 76 0 -10
2022-11-29 04:22 E 1 3 77 0 -9
2022-11-29 04:07 SSW 4 4 76 0 -10
2022-11-29 03:37 NNW 2 3 78 0 -4
2022-11-29 03:22 N 2 3 78 0 -4
2022-11-29 03:07 N 4 6 79 0 -2
2022-11-29 02:37 NNE 6 8 80 0 0
2022-11-29 02:22 NNE 6 7 80 0 0
2022-11-29 02:07 N 4 5 80 0 1
2022-11-29 01:37 N 5 7 81 0 2
2022-11-29 01:22 0 3 81 0 2
2022-11-29 01:07 N 2 4 81 0 1
2022-11-29 00:37 NNW 3 3 79 0 -1
2022-11-29 00:22 NNE 2 3 79 0 -2
2022-11-29 00:07 0 1 78 0 -4
2022-11-28 23:37 NNW 1 3 77 0 -6
2022-11-28 23:22 NW 1 2 77 0 -7
2022-11-28 23:07 0 3 77 0 -8
2022-11-28 22:37 0 2 77 0 -7
2022-11-28 22:22 NNE 3 4 77 0 -8
2022-11-28 22:07 NNE 2 3 77 0 -9
2022-11-28 21:37 N 1 3 77 0 -8
2022-11-28 21:22 NE 1 3 78 0 -6
2022-11-28 21:07 NE 2 3 78 0 -7
2022-11-28 20:37 0 1 80 0 -3
2022-11-28 20:22 0 1 79 0 -6
2022-11-28 20:07 NNW 1 1 80 0 -4
2022-11-28 19:37 NE 2 2 81 0 -2
2022-11-28 19:22 NNE 3 3 80 0 -2
2022-11-28 19:07 NNW 3 4 79 0 -2
2022-11-28 18:37 NNE 5 7 78 0 2
2022-11-28 18:22 NNE 8 10 77 0 3
2022-11-28 18:07 NNE 8 11 76 0 4
2022-11-28 17:37 NNE 9 10 75 0 4
2022-11-28 17:22 NNE 9 11 74 0 5
2022-11-28 17:07 NNE 9 10 73 0 6
2022-11-28 16:37 NNE 10 11 70 0 8
2022-11-28 16:22 N 10 11 70 0 9
2022-11-28 16:07 N 7 10 67 0 10
2022-11-28 15:37 N 8 12 66 0 12
2022-11-28 15:22 N 10 12 64 0 12
2022-11-28 15:07 N 12 15 62 0 14
2022-11-28 14:37 NW 4 5 49 0 15
2022-11-28 14:22 ENE 1 3 49 0 17
2022-11-28 14:07 N 1 2 60 0 14
2022-11-28 13:37 NNW 1 2 57 0 10
2022-11-28 13:22 N 1 2 59 0 10
2022-11-28 13:07 0 1 60 0 8
2022-11-28 12:37 0 0 59 0 6
2022-11-28 12:22 0 1 54 0 7
2022-11-28 12:07 0 1 62 0 6
2022-11-28 11:37 0 0 64 0 5
2022-11-28 11:22 0 3 67 0 2